createdAt,value
2023-03-12T00:00:22.495Z,45.70
2023-03-12T00:02:24.378Z,45.96
2023-03-12T00:04:31.288Z,45.50
2023-03-12T00:06:33.036Z,45.47
2023-03-12T00:08:36.000Z,46.21
2023-03-12T00:10:39.869Z,46.16
2023-03-12T00:12:41.518Z,45.99
2023-03-12T00:14:46.082Z,45.61
2023-03-12T00:16:47.547Z,46.34
2023-03-12T00:18:51.166Z,46.48
2023-03-12T00:20:54.323Z,46.20
2023-03-12T00:22:55.794Z,45.90
2023-03-12T00:24:57.556Z,45.89
2023-03-12T00:26:59.099Z,46.47
2023-03-12T00:29:03.336Z,45.92
2023-03-12T00:31:14.715Z,46.54
2023-03-12T00:33:16.416Z,46.19
2023-03-12T00:35:18.218Z,46.41
2023-03-12T00:37:20.950Z,46.13
2023-03-12T00:39:22.473Z,46.42
2023-03-12T00:41:24.962Z,46.51
2023-03-12T00:43:26.490Z,46.62
2023-03-12T00:45:28.238Z,46.32
2023-03-12T00:47:29.693Z,46.33
2023-03-12T00:49:31.382Z,46.55
2023-03-12T00:51:34.024Z,46.17
2023-03-12T00:53:36.192Z,46.21
2023-03-12T00:55:37.689Z,46.38
2023-03-12T00:57:39.168Z,46.68
2023-03-12T00:59:40.974Z,46.86
2023-03-12T01:01:43.396Z,46.78
2023-03-12T01:03:45.673Z,46.53
2023-03-12T01:05:54.136Z,46.72
2023-03-12T01:07:55.820Z,46.82
2023-03-12T01:09:57.465Z,46.82
2023-03-12T01:11:59.129Z,46.41
2023-03-12T01:14:04.334Z,46.72
2023-03-12T01:16:06.599Z,46.70
2023-03-12T01:18:08.659Z,46.58
2023-03-12T01:20:13.896Z,46.42
2023-03-12T01:22:15.407Z,46.51
2023-03-12T01:24:16.956Z,46.78
2023-03-12T01:26:19.479Z,46.28
2023-03-12T01:28:22.755Z,46.42
2023-03-12T01:30:25.672Z,46.26
2023-03-12T01:32:27.258Z,46.94
2023-03-12T01:34:33.408Z,46.27
2023-03-12T01:36:34.980Z,46.58
2023-03-12T01:38:36.457Z,46.74
2023-03-12T01:40:38.563Z,46.58
2023-03-12T01:42:43.335Z,46.85
2023-03-12T01:44:57.160Z,46.90
2023-03-12T01:47:01.692Z,46.81
2023-03-12T01:49:14.343Z,46.87
2023-03-12T01:51:18.911Z,46.93
2023-03-12T01:53:20.667Z,46.78
2023-03-12T01:55:22.699Z,47.00
2023-03-12T01:57:31.131Z,46.87
2023-03-12T01:59:38.787Z,47.20
2023-03-12T02:01:41.809Z,47.09
2023-03-12T02:03:49.160Z,46.97
2023-03-12T02:06:03.093Z,47.28
2023-03-12T02:08:10.775Z,46.92
2023-03-12T02:10:13.692Z,47.25
2023-03-12T02:12:17.287Z,46.73
2023-03-12T02:14:19.384Z,47.12
2023-03-12T02:16:21.407Z,47.21
2023-03-12T02:18:23.645Z,47.27
2023-03-12T02:20:32.154Z,47.16
2023-03-12T02:22:38.625Z,47.19
2023-03-12T02:24:51.264Z,47.21
2023-03-12T02:26:55.349Z,47.48
2023-03-12T02:28:59.694Z,47.51
2023-03-12T02:31:03.642Z,47.61
2023-03-12T02:33:08.362Z,47.43
2023-03-12T02:35:10.308Z,47.59
2023-03-12T02:37:11.832Z,47.59
2023-03-12T02:39:13.561Z,47.41
2023-03-12T02:41:18.059Z,47.81
2023-03-12T02:43:22.697Z,47.60
2023-03-12T02:45:25.848Z,47.50
2023-03-12T02:47:27.497Z,47.69
2023-03-12T02:49:31.930Z,47.48
2023-03-12T02:51:34.644Z,47.35
2023-03-12T02:53:36.559Z,47.55
2023-03-12T02:55:39.286Z,47.78
2023-03-12T02:57:43.937Z,47.51
2023-03-12T02:59:47.847Z,47.98
2023-03-12T03:01:57.148Z,47.98
2023-03-12T03:03:58.704Z,47.75
2023-03-12T03:06:01.463Z,47.78
2023-03-12T03:08:04.252Z,48.00
2023-03-12T03:10:06.613Z,47.80
2023-03-12T03:12:08.561Z,47.80
2023-03-12T03:14:11.487Z,48.13
2023-03-12T03:16:14.985Z,48.16
2023-03-12T03:18:16.590Z,48.20
2023-03-12T03:20:18.692Z,48.21
2023-03-12T03:22:21.550Z,47.89
2023-03-12T03:24:23.330Z,47.97
2023-03-12T03:26:25.180Z,47.75
2023-03-12T03:28:29.170Z,47.69
2023-03-12T03:30:33.024Z,48.27
2023-03-12T03:32:34.552Z,48.02
2023-03-12T03:34:36.448Z,48.07
2023-03-12T03:36:37.974Z,47.81
2023-03-12T03:38:49.127Z,47.80
2023-03-12T03:40:51.530Z,47.83
2023-03-12T03:42:53.096Z,47.91
2023-03-12T03:44:56.931Z,48.06
2023-03-12T03:46:59.008Z,47.86
2023-03-12T03:49:01.265Z,48.25
2023-03-12T03:51:06.759Z,47.76
2023-03-12T03:53:10.637Z,48.20
2023-03-12T03:55:12.110Z,47.94
2023-03-12T03:57:14.726Z,47.76
2023-03-12T03:59:18.206Z,48.29
2023-03-12T04:01:21.498Z,48.63
2023-03-12T04:03:24.334Z,48.62
2023-03-12T04:05:30.839Z,48.03
2023-03-12T04:07:35.642Z,48.04
2023-03-12T04:09:40.590Z,48.47
2023-03-12T04:11:42.653Z,47.64
2023-03-12T04:13:48.853Z,48.46
2023-03-12T04:15:54.074Z,48.22
2023-03-12T04:17:55.957Z,48.38
2023-03-12T04:19:58.165Z,48.18
2023-03-12T04:22:00.360Z,47.94
2023-03-12T04:24:01.889Z,47.97
2023-03-12T04:26:10.188Z,48.08
2023-03-12T04:28:13.469Z,47.79
2023-03-12T04:30:15.224Z,48.00
2023-03-12T04:32:16.960Z,48.21
2023-03-12T04:34:18.703Z,48.42
2023-03-12T04:36:23.763Z,47.99
2023-03-12T04:38:30.157Z,48.17
2023-03-12T04:40:32.707Z,48.18
2023-03-12T04:42:35.491Z,48.55
2023-03-12T04:44:37.487Z,48.31
2023-03-12T04:46:39.529Z,48.23
2023-03-12T04:48:43.441Z,48.26
2023-03-12T04:50:45.290Z,48.15
2023-03-12T04:52:47.779Z,48.57
2023-03-12T04:54:49.422Z,48.31
2023-03-12T04:56:54.076Z,48.20
2023-03-12T04:58:57.304Z,48.12
2023-03-12T05:00:58.795Z,48.05
2023-03-12T05:03:00.459Z,48.16
2023-03-12T05:05:02.298Z,48.30
2023-03-12T05:07:04.311Z,48.41
2023-03-12T05:09:05.855Z,48.51
2023-03-12T05:11:07.814Z,48.32
2023-03-12T05:13:18.223Z,48.51
2023-03-12T05:15:20.785Z,48.26
2023-03-12T05:17:22.570Z,47.83
2023-03-12T05:19:24.396Z,48.82
2023-03-12T05:21:26.030Z,48.15
2023-03-12T05:23:30.127Z,48.53
2023-03-12T05:25:39.571Z,48.47
2023-03-12T05:27:41.608Z,48.00
2023-03-12T05:29:44.132Z,48.11
2023-03-12T05:31:46.051Z,48.08
2023-03-12T05:33:48.580Z,47.90
2023-03-12T05:35:51.573Z,48.58
2023-03-12T05:37:55.988Z,49.00
2023-03-12T05:39:57.591Z,48.56
2023-03-12T05:41:59.619Z,48.58
2023-03-12T05:44:01.272Z,48.71
2023-03-12T05:46:05.032Z,48.60
2023-03-12T05:48:08.609Z,48.07
2023-03-12T05:50:11.775Z,48.55
2023-03-12T05:52:14.641Z,48.15
2023-03-12T05:54:21.062Z,49.03
2023-03-12T05:56:32.510Z,48.50
2023-03-12T05:58:35.324Z,48.55
2023-03-12T06:00:38.180Z,49.01
2023-03-12T06:02:41.456Z,48.58
2023-03-12T06:04:44.935Z,48.77
2023-03-12T06:06:47.038Z,48.89
2023-03-12T06:08:49.885Z,48.79
2023-03-12T06:10:54.754Z,48.89
2023-03-12T06:12:59.146Z,48.84
2023-03-12T06:15:00.598Z,48.80
2023-03-12T06:17:02.807Z,48.76
2023-03-12T06:19:05.004Z,48.67
2023-03-12T06:21:11.943Z,48.69
2023-03-12T06:23:14.377Z,48.78
2023-03-12T06:25:18.819Z,48.47
2023-03-12T06:27:20.560Z,48.76
2023-03-12T06:29:22.195Z,49.02
2023-03-12T06:31:26.566Z,48.96
2023-03-12T06:33:28.543Z,48.80
2023-03-12T06:35:30.416Z,48.57
2023-03-12T06:37:32.072Z,49.10
2023-03-12T06:39:33.635Z,48.93
2023-03-12T06:41:35.698Z,48.35
2023-03-12T06:43:41.656Z,48.95
2023-03-12T06:45:43.132Z,48.48
2023-03-12T06:47:44.736Z,49.09
2023-03-12T06:49:46.297Z,48.94
2023-03-12T06:51:47.946Z,49.53
2023-03-12T06:53:51.808Z,49.44
2023-03-12T06:55:53.284Z,49.63
2023-03-12T06:57:55.002Z,48.61
2023-03-12T06:59:56.507Z,48.58
2023-03-12T07:01:58.062Z,49.09
2023-03-12T07:03:59.635Z,48.77
2023-03-12T07:06:01.626Z,49.23
2023-03-12T07:08:03.294Z,48.79
2023-03-12T07:10:06.596Z,48.85
2023-03-12T07:12:08.778Z,49.45
2023-03-12T07:14:10.433Z,49.01
2023-03-12T07:16:12.140Z,49.40
2023-03-12T07:18:14.048Z,49.04
2023-03-12T07:20:15.853Z,49.20
2023-03-12T07:22:17.845Z,48.90
2023-03-12T07:24:19.434Z,48.69
2023-03-12T07:26:22.126Z,49.47
2023-03-12T07:28:23.981Z,48.87
2023-03-12T07:30:25.616Z,49.17
2023-03-12T07:32:27.592Z,49.01
2023-03-12T07:34:29.429Z,49.14
2023-03-12T07:36:31.148Z,48.64
2023-03-12T07:38:32.881Z,48.66
2023-03-12T07:40:35.790Z,48.85
2023-03-12T07:42:37.305Z,49.08
2023-03-12T07:44:39.159Z,48.90
2023-03-12T07:46:40.694Z,48.76
2023-03-12T07:48:44.294Z,48.95
2023-03-12T07:50:48.772Z,48.68
2023-03-12T07:52:52.804Z,48.88
2023-03-12T07:54:56.516Z,48.84
2023-03-12T07:56:58.079Z,48.54
2023-03-12T07:58:59.693Z,48.91
2023-03-12T08:01:01.257Z,48.43
2023-03-12T08:03:02.943Z,49.02
2023-03-12T08:05:05.273Z,48.70
2023-03-12T08:07:09.139Z,48.64
2023-03-12T08:09:11.273Z,48.88
2023-03-12T08:11:12.887Z,48.68
2023-03-12T08:13:14.378Z,48.40
2023-03-12T08:15:16.367Z,48.62
2023-03-12T08:17:18.282Z,48.35
2023-03-12T08:19:19.734Z,48.20
2023-03-12T08:21:21.291Z,48.76
2023-03-12T08:23:24.145Z,48.43
2023-03-12T08:25:26.001Z,48.68
2023-03-12T08:27:27.604Z,48.40
2023-03-12T08:29:30.367Z,48.53
2023-03-12T08:31:32.150Z,48.54
2023-03-12T08:33:33.700Z,48.53
2023-03-12T08:35:35.331Z,48.54
2023-03-12T08:37:36.822Z,48.66
2023-03-12T08:39:38.627Z,48.61
2023-03-12T08:41:40.113Z,48.63
2023-03-12T08:43:41.763Z,48.60
2023-03-12T08:45:43.294Z,48.79
2023-03-12T08:47:45.943Z,48.81
2023-03-12T08:49:47.647Z,48.83
2023-03-12T08:51:51.720Z,49.02
2023-03-12T08:53:53.342Z,48.79
2023-03-12T08:55:55.620Z,48.98
2023-03-12T08:57:57.931Z,48.75
2023-03-12T08:59:59.441Z,49.12
2023-03-12T09:02:01.421Z,49.25
2023-03-12T09:04:04.381Z,49.60
2023-03-12T09:06:13.075Z,49.74
2023-03-12T09:08:15.634Z,49.46
2023-03-12T09:10:17.715Z,49.76
2023-03-12T09:12:19.334Z,49.48
2023-03-12T09:16:42.379Z,49.38
2023-03-12T09:18:43.893Z,49.38
2023-03-12T09:20:47.990Z,49.60
2023-03-12T09:22:49.826Z,49.29
2023-03-12T09:24:51.524Z,48.89
2023-03-12T09:26:53.344Z,48.63
2023-03-12T09:28:55.294Z,48.72
2023-03-12T09:30:56.916Z,48.23
2023-03-12T09:32:58.655Z,48.37
2023-03-12T09:35:00.267Z,48.42
2023-03-12T09:37:01.783Z,48.52
2023-03-12T09:39:03.698Z,48.23
2023-03-12T09:41:15.137Z,48.29
2023-03-12T09:43:50.615Z,48.13
2023-03-12T09:45:53.658Z,48.10
2023-03-12T09:48:01.377Z,48.45
2023-03-12T09:50:07.996Z,47.78
2023-03-12T09:52:24.499Z,48.25
2023-03-12T09:54:36.756Z,47.91
2023-03-12T09:56:38.983Z,47.76
2023-03-12T09:58:42.459Z,48.31
2023-03-12T10:00:45.820Z,48.09
2023-03-12T10:03:12.786Z,47.96
2023-03-12T10:05:53.070Z,48.05
2023-03-12T10:08:25.071Z,48.42
2023-03-12T10:10:46.158Z,48.44
2023-03-12T10:13:13.644Z,48.17
2023-03-12T10:15:36.839Z,48.17
2023-03-12T10:18:16.187Z,48.31
2023-03-12T10:20:42.134Z,48.19
2023-03-12T10:23:17.527Z,48.14
2023-03-12T10:25:46.414Z,48.15
2023-03-12T10:27:48.553Z,48.01
2023-03-12T10:29:52.927Z,47.77
2023-03-12T10:32:05.845Z,47.76
2023-03-12T10:34:47.031Z,47.76
2023-03-12T10:36:48.645Z,47.71
2023-03-12T10:38:50.117Z,47.61
2023-03-12T10:40:51.756Z,47.84
2023-03-12T10:42:54.034Z,47.30
2023-03-12T10:45:14.729Z,47.23
2023-03-12T10:47:40.462Z,47.39
2023-03-12T10:49:41.901Z,47.35
2023-03-12T10:51:57.145Z,47.17
2023-03-12T10:53:58.749Z,47.25
2023-03-12T10:56:05.983Z,46.66
2023-03-12T10:58:23.895Z,46.87
2023-03-12T11:00:28.083Z,47.12
2023-03-12T11:02:41.549Z,47.00
2023-03-12T11:04:52.855Z,47.20
2023-03-12T11:07:07.249Z,47.06
2023-03-12T11:09:19.460Z,46.94
2023-03-12T11:11:32.644Z,47.07
2023-03-12T11:13:37.955Z,47.45
2023-03-12T11:15:41.920Z,46.91
2023-03-12T11:17:43.416Z,47.44
2023-03-12T11:19:44.923Z,47.18
2023-03-12T11:22:01.780Z,47.35
2023-03-12T11:24:07.083Z,47.44
2023-03-12T11:26:16.877Z,47.52
2023-03-12T11:28:23.686Z,47.59
2023-03-12T11:30:45.867Z,47.55
2023-03-12T11:32:49.308Z,47.65
2023-03-12T11:34:55.784Z,47.67
2023-03-12T11:37:17.112Z,47.76
2023-03-12T11:39:45.528Z,47.79
2023-03-12T11:41:58.624Z,47.79
2023-03-12T11:44:12.055Z,47.77
2023-03-12T11:46:32.773Z,47.63
2023-03-12T11:49:02.196Z,47.29
2023-03-12T11:51:25.230Z,47.60
2023-03-12T11:54:04.369Z,47.74
2023-03-12T11:56:29.057Z,47.83
2023-03-12T11:58:45.500Z,48.01
2023-03-12T12:01:12.786Z,47.93
2023-03-12T12:03:45.654Z,47.87
2023-03-12T12:06:00.966Z,48.28
2023-03-12T12:08:48.019Z,48.26
2023-03-12T12:11:19.323Z,48.09
2023-03-12T12:13:41.914Z,48.09
2023-03-12T12:15:50.745Z,48.21
2023-03-12T12:18:04.360Z,48.03
2023-03-12T12:20:21.696Z,48.18
2023-03-12T12:22:26.047Z,48.39
2023-03-12T12:24:37.567Z,48.06
2023-03-12T12:26:59.594Z,48.41
2023-03-12T12:29:36.990Z,48.64
2023-03-12T12:31:58.601Z,48.57
2023-03-12T12:34:17.977Z,48.35
2023-03-12T12:36:19.488Z,48.56
2023-03-12T12:38:34.320Z,48.68
2023-03-12T12:40:44.070Z,48.74
2023-03-12T12:42:51.820Z,48.94
2023-03-12T12:44:57.648Z,49.02
2023-03-12T12:47:05.611Z,49.00
2023-03-12T12:49:14.647Z,49.17
2023-03-12T12:51:19.759Z,49.00
2023-03-12T12:53:31.798Z,49.27
2023-03-12T12:55:50.421Z,49.37
2023-03-12T12:58:01.858Z,49.08
2023-03-12T13:00:22.684Z,49.59
2023-03-12T13:02:28.765Z,49.36
2023-03-12T13:04:39.394Z,49.66
2023-03-12T13:07:13.404Z,49.91
2023-03-12T13:09:20.582Z,49.70
2023-03-12T13:11:31.496Z,49.76
2023-03-12T13:13:35.661Z,49.55
2023-03-12T13:15:43.669Z,49.86
2023-03-12T13:17:51.086Z,49.89
2023-03-12T13:20:17.237Z,50.41
2023-03-12T13:22:39.246Z,50.03
2023-03-12T13:25:05.281Z,50.23
2023-03-12T13:27:19.808Z,50.00
2023-03-12T13:29:29.188Z,50.47
2023-03-12T13:31:30.885Z,49.84
2023-03-12T13:33:45.176Z,50.34
2023-03-12T13:36:17.488Z,50.68
2023-03-12T13:38:36.396Z,50.45
2023-03-12T13:40:51.897Z,49.83
2023-03-12T13:43:02.291Z,50.67
2023-03-12T13:45:27.762Z,50.07
2023-03-12T13:47:32.298Z,50.19
2023-03-12T13:49:45.769Z,50.72
2023-03-12T13:51:57.203Z,50.43
2023-03-12T13:54:03.734Z,50.81
2023-03-12T13:56:11.646Z,50.20
2023-03-12T13:58:21.314Z,50.09
2023-03-12T14:00:36.193Z,50.67
2023-03-12T14:02:45.269Z,50.42
2023-03-12T14:04:46.973Z,50.48
2023-03-12T14:07:09.815Z,51.16
2023-03-12T14:09:45.325Z,51.14
2023-03-12T14:12:08.720Z,51.39
2023-03-12T14:14:20.667Z,50.90
2023-03-12T14:16:41.292Z,51.14
2023-03-12T14:18:45.855Z,50.98
2023-03-12T14:20:58.072Z,51.01
2023-03-12T14:23:06.054Z,51.58
2023-03-12T14:25:42.251Z,51.07
2023-03-12T14:27:47.469Z,50.99
2023-03-12T14:30:12.690Z,51.16
2023-03-12T14:32:18.894Z,51.41
2023-03-12T14:34:30.661Z,50.97
2023-03-12T14:36:41.360Z,51.37
2023-03-12T14:38:46.057Z,51.26
2023-03-12T14:41:06.278Z,51.26
2023-03-12T14:43:21.150Z,51.62
2023-03-12T14:45:23.458Z,51.26
2023-03-12T14:47:25.347Z,51.55
2023-03-12T14:49:31.070Z,51.38
2023-03-12T14:51:36.099Z,51.59
2023-03-12T14:53:41.240Z,51.91
2023-03-12T14:55:42.713Z,51.62
2023-03-12T14:57:45.054Z,51.63
2023-03-12T14:59:53.786Z,52.00
2023-03-12T15:02:15.649Z,52.15
2023-03-12T15:04:21.551Z,51.67
2023-03-12T15:06:30.504Z,52.09
2023-03-12T15:08:41.121Z,52.22
2023-03-12T15:10:49.654Z,52.01
2023-03-12T15:12:55.371Z,52.29
2023-03-12T15:15:05.543Z,52.57
2023-03-12T15:17:16.506Z,52.48
2023-03-12T15:19:23.274Z,52.06
2023-03-12T15:21:38.393Z,52.57
2023-03-12T15:23:44.561Z,52.19
2023-03-12T15:25:46.214Z,52.20
2023-03-12T15:27:47.809Z,52.08
2023-03-12T15:29:49.476Z,51.86
2023-03-12T15:31:51.259Z,52.11
2023-03-12T15:34:02.368Z,52.47
2023-03-12T15:36:21.699Z,52.72
2023-03-12T15:38:24.259Z,52.48
2023-03-12T15:40:28.357Z,52.77
2023-03-12T15:42:38.673Z,52.69
2023-03-12T15:44:58.863Z,52.59
2023-03-12T15:47:10.238Z,52.51
2023-03-12T15:49:22.294Z,52.35
2023-03-12T15:51:30.700Z,52.60
2023-03-12T15:53:34.468Z,52.42
2023-03-12T15:55:36.364Z,52.47
2023-03-12T15:58:42.559Z,52.85
2023-03-12T16:00:45.482Z,52.40
2023-03-12T16:02:49.234Z,52.45
2023-03-12T16:04:51.433Z,52.39
2023-03-12T16:06:53.526Z,52.29
2023-03-12T16:09:01.198Z,52.50
2023-03-12T16:11:03.191Z,52.31
2023-03-12T16:13:05.829Z,52.48
2023-03-12T16:15:09.497Z,52.22
2023-03-12T16:17:14.217Z,52.22
2023-03-12T16:19:18.614Z,52.14
2023-03-12T16:21:20.514Z,52.16
2023-03-12T16:23:22.063Z,52.22
2023-03-12T16:25:26.403Z,52.24
2023-03-12T16:27:32.752Z,52.08
2023-03-12T16:29:38.092Z,51.88
2023-03-12T16:31:42.393Z,52.13
2023-03-12T16:33:44.837Z,52.33
2023-03-12T16:35:47.088Z,52.08
2023-03-12T16:37:49.121Z,52.07
2023-03-12T16:39:50.662Z,51.97
2023-03-12T16:41:52.232Z,52.09
2023-03-12T16:43:54.827Z,52.10
2023-03-12T16:45:58.053Z,52.05
2023-03-12T16:48:03.254Z,52.01
2023-03-12T16:50:22.796Z,51.91
2023-03-12T16:52:28.993Z,52.05
2023-03-12T16:54:30.978Z,52.17
2023-03-12T16:56:32.618Z,52.16
2023-03-12T16:58:34.256Z,51.89
2023-03-12T17:00:40.738Z,52.27
2023-03-12T17:02:47.148Z,51.95
2023-03-12T17:04:48.929Z,51.88
2023-03-12T17:06:50.568Z,51.83
2023-03-12T17:08:56.466Z,51.89
2023-03-12T17:10:59.849Z,51.75
2023-03-12T17:13:01.690Z,51.90
2023-03-12T17:15:07.850Z,52.00
2023-03-12T17:17:09.766Z,51.87
2023-03-12T17:19:14.001Z,51.92
2023-03-12T17:21:19.077Z,52.01
2023-03-12T17:23:20.531Z,52.08
2023-03-12T17:25:28.815Z,51.96
2023-03-12T17:27:30.896Z,51.98
2023-03-12T17:29:32.743Z,51.77
2023-03-12T17:31:35.539Z,51.71
2023-03-12T17:33:38.210Z,51.90
2023-03-12T17:35:40.333Z,51.89
2023-03-12T17:37:41.912Z,51.82
2023-03-12T17:39:43.366Z,52.00
2023-03-12T17:41:45.270Z,51.89
2023-03-12T17:43:46.840Z,51.94
2023-03-12T17:45:49.275Z,51.90
2023-03-12T17:47:50.861Z,51.84
2023-03-12T17:49:52.341Z,51.89
2023-03-12T17:51:53.992Z,51.95
2023-03-12T17:53:55.547Z,52.00
2023-03-12T17:55:57.177Z,51.91
2023-03-12T17:57:58.882Z,51.98
2023-03-12T18:00:00.509Z,51.89
2023-03-12T18:02:02.117Z,52.09
2023-03-12T18:04:03.654Z,51.97
2023-03-12T18:06:05.502Z,51.82
2023-03-12T18:08:08.478Z,52.02
2023-03-12T18:10:11.203Z,51.87
2023-03-12T18:12:13.333Z,52.12
2023-03-12T18:14:16.431Z,52.16
2023-03-12T18:16:23.891Z,51.97
2023-03-12T18:18:26.897Z,51.98
2023-03-12T18:20:38.518Z,52.26
2023-03-12T18:22:43.145Z,52.03
2023-03-12T18:24:45.246Z,51.91
2023-03-12T18:26:49.369Z,52.07
2023-03-12T18:28:51.010Z,51.64
2023-03-12T18:30:53.832Z,52.10
2023-03-12T18:32:55.546Z,51.97
2023-03-12T18:34:57.748Z,51.75
2023-03-12T18:36:59.396Z,52.14
2023-03-12T18:39:04.532Z,52.33
2023-03-12T18:41:08.734Z,52.15
2023-03-12T18:43:12.682Z,52.40
2023-03-12T18:45:15.607Z,52.22
2023-03-12T18:47:19.189Z,52.26
2023-03-12T18:49:25.085Z,52.48
2023-03-12T18:51:26.969Z,52.36
2023-03-12T18:53:28.965Z,52.53
2023-03-12T18:55:30.801Z,52.35
2023-03-12T18:57:34.605Z,52.67
2023-03-12T18:59:36.257Z,52.54
2023-03-12T19:01:37.975Z,52.50
2023-03-12T19:03:44.476Z,52.63
2023-03-12T19:05:46.378Z,52.34
2023-03-12T19:07:48.118Z,52.49
2023-03-12T19:09:52.467Z,52.50
2023-03-12T19:11:53.982Z,52.52
2023-03-12T19:13:55.717Z,52.43
2023-03-12T19:16:02.304Z,52.45
2023-03-12T19:18:04.021Z,52.70
2023-03-12T19:20:07.281Z,52.52
2023-03-12T19:22:09.601Z,52.75
2023-03-12T19:24:11.334Z,52.47
2023-03-12T19:26:15.787Z,52.65
2023-03-12T19:28:17.737Z,52.58
2023-03-12T19:30:19.583Z,52.65
2023-03-12T19:32:25.318Z,52.78
2023-03-12T19:34:29.383Z,52.59
2023-03-12T19:36:31.049Z,52.64
2023-03-12T19:38:32.605Z,52.84
2023-03-12T19:40:34.946Z,52.93
2023-03-12T19:42:36.684Z,53.03
2023-03-12T19:44:40.242Z,52.62
2023-03-12T19:46:46.853Z,53.00
2023-03-12T19:48:48.516Z,52.98
2023-03-12T19:50:52.395Z,52.71
2023-03-12T19:52:53.928Z,53.02
2023-03-12T19:55:04.191Z,53.07
2023-03-12T19:57:06.655Z,53.23
2023-03-12T19:59:08.296Z,53.07
2023-03-12T20:01:09.858Z,53.08
2023-03-12T20:03:18.431Z,52.88
2023-03-12T20:05:20.056Z,52.87
2023-03-12T20:07:24.626Z,52.79
2023-03-12T20:09:30.769Z,53.25
2023-03-12T20:11:39.709Z,52.94
2023-03-12T20:13:41.532Z,53.01
2023-03-12T20:15:49.154Z,53.26
2023-03-12T20:18:02.005Z,53.30
2023-03-12T20:20:06.298Z,53.35
2023-03-12T20:22:08.431Z,52.75
2023-03-12T20:24:11.282Z,52.98
2023-03-12T20:26:14.710Z,53.11
2023-03-12T20:28:21.665Z,53.68
2023-03-12T20:30:23.779Z,53.21
2023-03-12T20:32:25.636Z,53.47
2023-03-12T20:34:28.250Z,53.03
2023-03-12T20:36:29.924Z,53.30
2023-03-12T20:38:32.584Z,53.28
2023-03-12T20:40:34.374Z,53.02
2023-03-12T20:42:35.940Z,53.09
2023-03-12T20:44:37.522Z,53.19
2023-03-12T20:46:39.140Z,53.18
2023-03-12T20:48:40.684Z,52.91
2023-03-12T20:50:44.814Z,53.19
2023-03-12T20:52:46.250Z,52.38
2023-03-12T20:54:50.560Z,53.09
2023-03-12T20:56:52.258Z,53.38
2023-03-12T20:58:53.971Z,53.27
2023-03-12T21:00:55.713Z,53.15
2023-03-12T21:02:57.413Z,52.96
2023-03-12T21:05:01.669Z,53.28
2023-03-12T21:07:03.252Z,53.13
2023-03-12T21:09:04.968Z,52.95
2023-03-12T21:11:07.258Z,52.96
2023-03-12T21:13:17.882Z,52.93
2023-03-12T21:15:19.922Z,52.87
2023-03-12T21:17:21.444Z,52.84
2023-03-12T21:19:23.299Z,52.43
2023-03-12T21:21:24.944Z,52.92
2023-03-12T21:23:26.497Z,53.09
2023-03-12T21:25:28.082Z,52.79
2023-03-12T21:27:35.841Z,52.51
2023-03-12T21:29:46.088Z,52.92
2023-03-12T21:31:50.184Z,52.90
2023-03-12T21:33:54.293Z,52.70
2023-03-12T21:35:55.835Z,52.88
2023-03-12T21:37:57.393Z,52.85
2023-03-12T21:40:01.700Z,52.72
2023-03-12T21:42:03.815Z,52.76
2023-03-12T21:44:05.738Z,52.78
2023-03-12T21:46:12.902Z,52.68
2023-03-12T21:48:14.565Z,52.81
2023-03-12T21:50:16.158Z,52.87
2023-03-12T21:52:17.621Z,53.11
2023-03-12T21:54:19.240Z,52.73
2023-03-12T21:56:28.039Z,52.87
2023-03-12T21:58:31.242Z,52.82
2023-03-12T22:00:32.731Z,52.71
2023-03-12T22:02:34.294Z,52.82
2023-03-12T22:04:35.885Z,52.70
2023-03-12T22:06:37.478Z,52.86
2023-03-12T22:08:43.337Z,52.78
2023-03-12T22:10:45.254Z,52.75
2023-03-12T22:12:46.867Z,52.64
2023-03-12T22:14:48.617Z,52.98
2023-03-12T22:16:50.603Z,52.69
2023-03-12T22:18:52.168Z,52.90
2023-03-12T22:20:57.605Z,52.93
2023-03-12T22:23:04.850Z,52.71
2023-03-12T22:25:06.748Z,52.81
2023-03-12T22:27:08.458Z,52.47
2023-03-12T22:29:09.947Z,52.51
2023-03-12T22:31:11.467Z,52.56
2023-03-12T22:33:13.964Z,52.45
2023-03-12T22:35:15.446Z,52.59
2023-03-12T22:37:17.306Z,52.38
2023-03-12T22:39:19.945Z,52.50
2023-03-12T22:41:26.749Z,52.50
2023-03-12T22:43:28.558Z,52.55
2023-03-12T22:45:30.131Z,51.86
2023-03-12T22:47:32.806Z,52.16
2023-03-12T22:49:34.460Z,52.42
2023-03-12T22:51:36.047Z,52.50
2023-03-12T22:53:37.502Z,52.51
2023-03-12T22:55:42.104Z,52.41
2023-03-12T22:57:43.627Z,52.23
2023-03-12T22:59:47.216Z,52.59
2023-03-12T23:01:51.153Z,52.58
2023-03-12T23:03:53.054Z,52.44
2023-03-12T23:05:54.957Z,52.52
2023-03-12T23:07:56.511Z,52.60
2023-03-12T23:09:58.268Z,52.56
2023-03-12T23:11:59.878Z,52.56
2023-03-12T23:14:01.539Z,52.66
2023-03-12T23:16:14.296Z,52.73
2023-03-12T23:18:16.728Z,52.60
2023-03-12T23:20:23.429Z,52.56
2023-03-12T23:22:32.573Z,52.47
2023-03-12T23:24:34.404Z,52.61
2023-03-12T23:26:36.032Z,52.69
2023-03-12T23:28:37.654Z,52.65
2023-03-12T23:30:39.229Z,52.77
2023-03-12T23:32:41.106Z,52.68
2023-03-12T23:34:42.802Z,52.37
2023-03-12T23:36:45.994Z,52.61
2023-03-12T23:38:48.802Z,52.68
2023-03-12T23:40:50.237Z,52.65
2023-03-12T23:42:51.829Z,52.69
2023-03-12T23:44:53.462Z,52.74
2023-03-12T23:46:55.026Z,52.64
2023-03-12T23:48:57.166Z,52.51
2023-03-12T23:51:19.431Z,52.86
2023-03-12T23:53:23.434Z,52.56
2023-03-12T23:55:24.933Z,52.71
2023-03-12T23:57:26.838Z,52.67
2023-03-12T23:59:28.269Z,52.34
